Impacts METAR Board
IDs:

KDFW - Dallas-Ft Worth Intl, TX, US

Updated at: 1100 UTC 21 Sep 2018
Potential Impact None Slight Moderate High
Time 20/23Z 21/00Z 21/01Z 21/02Z 21/03Z 21/04Z 21/05Z 21/06Z 21/07Z 21/08Z 21/09Z 21/10Z 21/11Z
Temp87 75 74 75 75 76 75 74 76 76 76 77 77
Dewpt68 69 70 69 70 69 69 69 69 70 71 72 73
Altim29.87 29.90 29.90 29.93 29.93 29.94 29.94 29.93 29.92 29.92 29.91 29.92 29.92
VIS10 3 10 10 10 10 10 10 10 10 10 10 10
CIG250 25 180 120 250 250 140 60 31 65 80 13 11
CoverBKNOVCBKNBKNBKNBKNBKNOVCOVCOVCOVCOVCOVC
FltCatVFRMVFRVFRVFRVFRVFRVFRVFRVFRVFRVFRMVFRMVFR
WX---TSRA-------RA--------------
WDir160120110120140190180180170160160170190
WSpd9 10 4 7 7 10 8 5 6 8 6 10 8
WGst-- 20 -- -- -- -- -- -- -- -- -- -- --
Raw hourly METARs
KDFW 202253Z 16009KT 10SM FEW050 SCT120 BKN250 31/20 A2987 RMK AO2 LTG DSNT SE-W SLP104 CB DSNT SW-NW MOV N T03060200
KDFW 210000Z 12010G20KT 3SM -TSRA BKN025CB OVC060 24/21 A2990 RMK AO2 LTG DSNT E OCNL LTGIC OHD TS OHD MOV N CB DSNT ALQDS P0003 T02390206
KDFW 210053Z 11004KT 10SM FEW035 SCT120 BKN180 BKN250 23/21 A2990 RMK AO2 LTG DSNT NE AND E RAE11 TSE01E07 SLP118 CB DSNT NE P0003 T02330211
KDFW 210153Z 12007KT 10SM FEW040 SCT090 BKN120 BKN250 24/21 A2993 RMK AO2 RAB38E50 SLP125 P0000 T02390206
KDFW 210253Z 14007KT 10SM FEW050 SCT120 BKN250 24/21 A2993 RMK AO2 SLP127 60003 T02390211 51015
KDFW 210353Z 19010KT 10SM -RA FEW050 SCT110 BKN250 24/21 A2994 RMK AO2 RAB48 SLP130 P0000 T02440206
KDFW 210453Z 18008KT 10SM FEW100 BKN140 24/21 A2994 RMK AO2 RAE0357 SLP129 P0000 T02390206
KDFW 210553Z 18005KT 10SM BKN060 OVC140 23/21 A2993 RMK AO2 SLP125 60003 T02330206 10250 20233 403220233 58002
KDFW 210653Z 17006KT 10SM BKN031 OVC060 24/21 A2992 RMK AO2 SLP122 T02440206
KDFW 210753Z 16008KT 10SM FEW028 OVC065 24/21 A2992 RMK AO2 RAB18E48 SLP121 P0001 T02440211
KDFW 210853Z 16006KT 10SM SCT019 OVC080 24/22 A2991 RMK AO2 SLP120 60001 T02440217 56004
KDFW 210953Z 17010KT 10SM BKN013 BKN055 OVC080 25/22 A2992 RMK AO2 SLP121 BKN013 V SCT T02500222
KDFW 211053Z 19008KT 10SM OVC011 25/23 A2992 RMK AO2 SLP121 T02500228



Page loaded:  11:57 UTC  |   04:57 AM Pacific  |   05:57 AM Mountain  |   06:57 AM Central  |   07:57 AM Eastern

 

ADVISORIES

FORECASTS

FORECASTS

OBSERVATIONS

USER TOOLS

ABOUT US